Hagedorns Mills, New York
Current Conditions -  °F | °C
As of 2:35 PM on Thursday 27 Nov 2014 (Local Time) from KNY0 Reporting Station
Overcast Overcast  
Wind Chill: 28°   Ceiling: 400
Heat Index: 28°   Visibility: 1.2mi
Dew Point: 26°   Wind: 3mph
Humidity: 94%   Direction: 200°SSW
Pressure: 29.97"   Gusts: NA
Location:  43.0346°N, 74.0404°W
Report Text: KNY0 271935Z AUTO 20003KT 1 1/4SM OVC004 M02/M03 A2997 RMK AO2 T10251033
Loading
Personal Weather Stations






























Interactive Weather Map New forecast layout! Learn more

10-Day Weather Forecast

Advertisements
Track Severe Weather on mobile